Norfolk, Virginia
Traffic Map
Current Weather Conditions
Norfolk, Virginia
Broken Clouds
Broken Clouds
95°
Feels Like: 113°
Wind Chill: 95° Ceiling: 5000
Heat Index: 113° Visibility: 10mi
Dew Point: 79° Wind: 15mph
Humidity: 60% Direction: 220° (SW)
Pressure: 29.84in Gusts: 0mph
Raw Report DataKORF 181851Z 22013KT 10SM SCT039 BKN050 BKN090 35/26 A2984 RMK AO2 SLP104 T03500261
Traffic Incident Summary
Active as of:
Severity:
Category:
InformationThere was an issue retrieving the traffic information for this location. Please try a different location or try again shortly.
Advertisements